Time;durP1;ratioP1;P1;durP2;ratioP2;P2;SDS_P1;SDS_P2;PMS_P1;PMS_P2;Temp;Humidity;BMP_temperature;BMP_pressure;BME280_temperature;BME280_humidity;BME280_pressure;Samples;Min_cycle;Max_cycle;Signal;HPM_P1;HPM_P2
2021/06/02 00:02:17;;;;;;;7.88;5.75;;;;;;;;;;5013632;28;20392;-61
2021/06/02 00:05:03;;;;;;;6.85;5.95;;;;;;;;;;5013765;28;20502;-62
2021/06/02 00:07:48;;;;;;;7.55;5.82;;;;;;;;;;5013812;28;20053;-62
2021/06/02 00:10:33;;;;;;;7.38;6.38;;;;;;;;;;5013411;28;20045;-62
2021/06/02 00:13:19;;;;;;;7.78;5.40;;;;;;;;;;5013606;28;20504;-62
2021/06/02 00:16:05;;;;;;;9.57;6.20;;;;;;;;;;5013471;28;20046;-62
2021/06/02 00:18:50;;;;;;;7.30;6.22;;;;;;;;;;5013531;28;20049;-62
2021/06/02 00:21:35;;;;;;;8.68;5.93;;;;;;;;;;5013176;28;20420;-62
2021/06/02 00:24:21;;;;;;;9.25;5.90;;;;;;;;;;5013255;28;20050;-62
2021/06/02 00:27:07;;;;;;;8.80;6.32;;;;;;;;;;5013509;28;20141;-62
2021/06/02 00:29:52;;;;;;;8.65;6.47;;;;;;;;;;5013232;28;20072;-62
2021/06/02 00:32:39;;;;;;;7.18;6.25;;;;;;;;;;5013228;28;20065;-63
2021/06/02 00:35:24;;;;;;;9.45;6.40;;;;;;;;;;5013310;28;20046;-61
2021/06/02 00:38:10;;;;;;;8.73;6.63;;;;;;;;;;5013275;28;20129;-62
2021/06/02 00:40:56;;;;;;;9.00;6.78;;;;;;;;;;5012962;28;20045;-62
2021/06/02 00:43:41;;;;;;;8.27;6.55;;;;;;;;;;5013449;28;20046;-62
2021/06/02 00:46:27;;;;;;;12.35;6.53;;;;;;;;;;5013345;28;20042;-61
2021/06/02 00:49:21;;;;;;;7.65;6.53;;;;;;;;;;5013224;28;20125;-61
2021/06/02 00:52:08;;;;;;;8.77;6.00;;;;;;;;;;5012999;28;20514;-62
2021/06/02 00:54:54;;;;;;;9.65;6.00;;;;;;;;;;5013204;28;20084;-61
2021/06/02 00:57:39;;;;;;;7.18;5.50;;;;;;;;;;5012753;28;20104;-61
2021/06/02 01:00:24;;;;;;;7.00;5.70;;;;;;;;;;5012624;28;20192;-61
2021/06/02 01:03:10;;;;;;;7.20;5.60;;;;;;;;;;5013263;28;20132;-61
2021/06/02 01:05:58;;;;;;;6.68;5.45;;;;;;;;;;5011772;28;20080;-61
2021/06/02 01:08:43;;;;;;;10.02;6.25;;;;;;;;;;5012896;28;20473;-61
2021/06/02 01:11:29;;;;;;;8.07;5.57;;;;;;;;;;5012442;28;20100;-61
2021/06/02 01:14:14;;;;;;;8.13;5.90;;;;;;;;;;5012908;28;20056;-61
2021/06/02 01:16:59;;;;;;;9.15;5.90;;;;;;;;;;5011716;28;20053;-62
2021/06/02 01:19:45;;;;;;;8.70;4.95;;;;;;;;;;5012504;28;20045;-61
2021/06/02 01:22:34;;;;;;;7.60;5.03;;;;;;;;;;5012433;28;20081;-61
2021/06/02 01:25:19;;;;;;;5.10;4.47;;;;;;;;;;5012677;28;20065;-61
2021/06/02 01:28:05;;;;;;;7.05;5.07;;;;;;;;;;5012561;28;20077;-61
2021/06/02 01:30:50;;;;;;;8.63;5.13;;;;;;;;;;5012183;28;20046;-61
2021/06/02 01:33:41;;;;;;;6.43;4.53;;;;;;;;;;5011526;28;20108;-61
2021/06/02 01:36:45;;;;;;;6.32;5.03;;;;;;;;;;5012473;28;20048;-62
2021/06/02 01:39:44;;;;;;;5.93;4.63;;;;;;;;;;5011132;28;20120;-61
2021/06/02 01:42:45;;;;;;;4.53;3.15;;;;;;;;;;5011289;28;20050;-61
2021/06/02 01:45:45;;;;;;;5.18;4.05;;;;;;;;;;5011473;28;20478;-61
2021/06/02 01:48:34;;;;;;;7.60;4.00;;;;;;;;;;5012323;28;20084;-62
2021/06/02 01:51:26;;;;;;;4.85;4.00;;;;;;;;;;5011900;28;20507;-61
2021/06/02 01:54:12;;;;;;;4.95;4.15;;;;;;;;;;5012107;28;20055;-61
2021/06/02 01:57:09;;;;;;;8.20;4.30;;;;;;;;;;5011200;28;20037;-61
2021/06/02 02:00:30;;;;;;;4.72;3.95;;;;;;;;;;5010918;28;20053;-62
2021/06/02 02:03:15;;;;;;;4.38;3.60;;;;;;;;;;4970856;28;20094;-61
2021/06/02 02:06:03;;;;;;;5.93;4.18;;;;;;;;;;5012113;28;20049;-61
2021/06/02 02:08:53;;;;;;;4.65;3.90;;;;;;;;;;5012001;28;20046;-61
2021/06/02 02:11:39;;;;;;;7.05;4.50;;;;;;;;;;5010851;28;20133;-61
2021/06/02 02:14:45;;;;;;;5.22;4.07;;;;;;;;;;5012109;28;20120;-61
2021/06/02 02:17:40;;;;;;;6.47;3.83;;;;;;;;;;5012097;28;20049;-61
2021/06/02 02:20:32;;;;;;;6.32;4.10;;;;;;;;;;5013505;28;20052;-61
2021/06/02 02:23:18;;;;;;;;;;;;;;;;;;5015136;28;20099;-61
2021/06/02 02:26:24;;;;;;;6.30;4.07;;;;;;;;;;5015656;28;19929;-60
2021/06/02 02:29:09;;;;;;;5.35;4.63;;;;;;;;;;5014101;28;20054;-62
2021/06/02 02:31:57;;;;;;;5.80;4.25;;;;;;;;;;5015812;28;20045;-61
2021/06/02 02:34:55;;;;;;;6.53;4.60;;;;;;;;;;5015546;28;20041;-61
2021/06/02 02:37:46;;;;;;;7.45;4.82;;;;;;;;;;5015386;28;20532;-60
2021/06/02 02:40:50;;;;;;;7.50;5.25;;;;;;;;;;5014167;28;20144;-61
2021/06/02 02:43:38;;;;;;;7.45;4.65;;;;;;;;;;5015406;28;20463;-61
2021/06/02 02:46:26;;;;;;;6.20;5.00;;;;;;;;;;5015442;28;20137;-61
2021/06/02 02:49:17;;;;;;;6.05;5.07;;;;;;;;;;5013370;28;20064;-61
2021/06/02 02:52:18;;;;;;;6.05;4.53;;;;;;;;;;5013615;28;20104;-61
2021/06/02 02:55:12;;;;;;;5.45;4.80;;;;;;;;;;5015171;28;20500;-61
2021/06/02 02:58:01;;;;;;;9.25;5.38;;;;;;;;;;5015048;28;20046;-61
2021/06/02 03:00:48;;;;;;;7.15;5.68;;;;;;;;;;5014557;28;20096;-61
2021/06/02 03:03:33;;;;;;;6.70;4.82;;;;;;;;;;5000544;28;20076;-62
2021/06/02 03:06:21;;;;;;;7.50;6.00;;;;;;;;;;5014882;28;20041;-61
2021/06/02 03:09:25;;;;;;;8.00;5.68;;;;;;;;;;5015006;28;20054;-61
2021/06/02 03:12:27;;;;;;;8.23;5.65;;;;;;;;;;5014904;28;20064;-61
2021/06/02 03:15:21;;;;;;;7.20;5.73;;;;;;;;;;5013735;28;20120;-61
2021/06/02 03:18:12;;;;;;;8.00;5.70;;;;;;;;;;5014547;28;20052;-61
2021/06/02 03:21:10;;;;;;;6.93;4.57;;;;;;;;;;5014333;28;20050;-61
2021/06/02 03:24:34;;;;;;;8.77;6.13;;;;;;;;;;5014822;28;20049;-61
2021/06/02 03:27:26;;;;;;;9.35;6.50;;;;;;;;;;4973117;28;20121;-62
2021/06/02 03:30:22;;;;;;;9.80;5.93;;;;;;;;;;4972902;28;20047;-61
2021/06/02 03:33:15;;;;;;;8.02;6.65;;;;;;;;;;5012627;28;20046;-61
2021/06/02 03:36:03;;;;;;;7.88;5.60;;;;;;;;;;5014277;28;20567;-61
2021/06/02 03:39:07;;;;;;;7.78;5.75;;;;;;;;;;5014504;28;20046;-61
2021/06/02 03:42:01;;;;;;;8.38;6.45;;;;;;;;;;5014224;28;20045;-61
2021/06/02 03:44:48;;;;;;;9.68;7.18;;;;;;;;;;5014100;28;20046;-61
2021/06/02 03:47:52;;;;;;;9.23;6.35;;;;;;;;;;5014235;28;20057;-61
2021/06/02 03:50:43;;;;;;;8.20;5.72;;;;;;;;;;5013718;28;20056;-61
2021/06/02 03:53:53;;;;;;;8.80;6.57;;;;;;;;;;5013387;28;20069;-61
2021/06/02 03:56:44;;;;;;;9.90;6.65;;;;;;;;;;5014030;28;20548;-61
2021/06/02 03:59:42;;;;;;;11.52;8.15;;;;;;;;;;5013907;28;20622;-62
2021/06/02 04:02:47;;;;;;;10.25;7.50;;;;;;;;;;5013785;28;20057;-62
2021/06/02 04:05:33;;;;;;;9.75;7.32;;;;;;;;;;5013888;28;20050;-61
2021/06/02 04:08:22;;;;;;;10.77;7.57;;;;;;;;;;5013712;28;20052;-62
2021/06/02 04:11:10;;;;;;;10.52;7.65;;;;;;;;;;5013392;28;20049;-61
2021/06/02 04:13:55;;;;;;;10.48;8.05;;;;;;;;;;5012811;28;20056;-61
2021/06/02 04:16:41;;;;;;;13.05;7.95;;;;;;;;;;5013556;28;20173;-61
2021/06/02 04:19:30;;;;;;;11.43;6.72;;;;;;;;;;5013414;28;20052;-60
2021/06/02 04:22:15;;;;;;;10.20;8.25;;;;;;;;;;5013478;28;20049;-61
2021/06/02 04:25:04;;;;;;;12.27;8.80;;;;;;;;;;5012514;28;20157;-62
2021/06/02 04:27:49;;;;;;;10.90;8.32;;;;;;;;;;5013471;28;20085;-61
2021/06/02 04:30:35;;;;;;;8.52;7.53;;;;;;;;;;5012206;28;20058;-61
2021/06/02 04:33:20;;;;;;;10.07;6.93;;;;;;;;;;5013451;28;20058;-61
2021/06/02 04:36:05;;;;;;;9.73;7.18;;;;;;;;;;5012536;28;20054;-62
2021/06/02 04:38:51;;;;;;;10.30;7.45;;;;;;;;;;5013420;28;20046;-62
2021/06/02 04:41:38;;;;;;;9.90;7.95;;;;;;;;;;5013039;28;20415;-61
2021/06/02 04:44:24;;;;;;;9.60;7.47;;;;;;;;;;5012077;28;20077;-61
2021/06/02 04:47:09;;;;;;;9.10;6.88;;;;;;;;;;5013166;28;20046;-61
2021/06/02 04:49:54;;;;;;;9.65;7.55;;;;;;;;;;5012845;28;20045;-61
2021/06/02 04:52:46;;;;;;;10.02;7.18;;;;;;;;;;5013045;28;20131;-61
2021/06/02 04:55:49;;;;;;;9.20;7.20;;;;;;;;;;5012971;28;20046;-62
2021/06/02 04:58:42;;;;;;;11.85;7.35;;;;;;;;;;5012880;28;20045;-62
2021/06/02 05:01:27;;;;;;;;;;;;;;;;;;5011689;28;20046;-61
2021/06/02 05:04:21;;;;;;;9.23;6.88;;;;;;;;;;5013083;28;20525;-61
2021/06/02 05:07:31;;;;;;;7.88;6.57;;;;;;;;;;5010534;28;20041;-62
2021/06/02 05:10:16;;;;;;;9.40;6.53;;;;;;;;;;5010583;28;20056;-62
2021/06/02 05:13:01;;;;;;;7.38;6.57;;;;;;;;;;5012650;28;20049;-61
2021/06/02 05:16:05;;;;;;;8.73;6.85;;;;;;;;;;5012658;28;20053;-62
2021/06/02 05:19:23;;;;;;;7.70;6.72;;;;;;;;;;5012538;28;20522;-61
2021/06/02 05:22:27;;;;;;;8.07;7.22;;;;;;;;;;5012441;28;20412;-61
2021/06/02 05:25:31;;;;;;;8.50;6.70;;;;;;;;;;5012600;28;20049;-62
2021/06/02 05:28:31;;;;;;;8.10;6.18;;;;;;;;;;5012339;28;20060;-61
2021/06/02 05:31:52;;;;;;;8.00;5.90;;;;;;;;;;4997376;28;20046;-61
2021/06/02 05:34:57;;;;;;;8.38;6.50;;;;;;;;;;4970894;28;20043;-61
2021/06/02 05:37:43;;;;;;;8.68;5.85;;;;;;;;;;5011421;28;20050;-62
2021/06/02 05:40:49;;;;;;;7.28;5.82;;;;;;;;;;5011175;28;20042;-61
2021/06/02 05:43:41;;;;;;;6.70;5.53;;;;;;;;;;5011632;28;20065;-62
2021/06/02 05:46:44;;;;;;;11.68;6.10;;;;;;;;;;5012421;28;20121;-61
2021/06/02 05:49:40;;;;;;;7.55;6.05;;;;;;;;;;5012229;28;20081;-62
2021/06/02 05:52:36;;;;;;;8.82;6.03;;;;;;;;;;5011150;28;20500;-61
2021/06/02 05:55:40;;;;;;;6.97;5.30;;;;;;;;;;5013423;28;20073;-62
2021/06/02 05:58:49;;;;;;;5.75;5.00;;;;;;;;;;5016470;28;20054;-61
2021/06/02 06:01:47;;;;;;;11.70;6.20;;;;;;;;;;5015021;28;20054;-62
2021/06/02 06:04:32;;;;;;;6.68;4.53;;;;;;;;;;5016466;28;20052;-61
2021/06/02 06:07:36;;;;;;;6.20;4.35;;;;;;;;;;5015653;28;20045;-61
2021/06/02 06:10:40;;;;;;;5.30;4.05;;;;;;;;;;5015398;28;20049;-61
2021/06/02 06:13:29;;;;;;;6.50;4.43;;;;;;;;;;5015982;28;20054;-62
2021/06/02 06:16:17;;;;;;;6.13;4.45;;;;;;;;;;5015796;28;20050;-61
2021/06/02 06:19:21;;;;;;;10.05;4.40;;;;;;;;;;5015695;28;20102;-62
2021/06/02 06:22:09;;;;;;;5.65;3.90;;;;;;;;;;5015696;28;20050;-61
2021/06/02 06:24:57;;;;;;;7.18;4.65;;;;;;;;;;5014868;28;20046;-61
2021/06/02 06:27:44;;;;;;;7.40;4.20;;;;;;;;;;5015648;28;20092;-61
2021/06/02 06:30:33;;;;;;;7.60;4.65;;;;;;;;;;5014370;28;20046;-61
2021/06/02 06:33:19;;;;;;;5.80;4.63;;;;;;;;;;5015536;28;20502;-61
2021/06/02 06:36:04;;;;;;;6.72;4.25;;;;;;;;;;5015641;28;20038;-62
2021/06/02 06:39:03;;;;;;;6.15;4.82;;;;;;;;;;5015396;28;20045;-62
2021/06/02 06:41:49;;;;;;;8.65;4.53;;;;;;;;;;5015391;28;20056;-62
2021/06/02 06:44:34;;;;;;;7.18;4.25;;;;;;;;;;5014460;28;20124;-62
2021/06/02 06:47:19;;;;;;;6.00;4.55;;;;;;;;;;5014392;28;20054;-61
2021/06/02 06:50:08;;;;;;;8.63;4.95;;;;;;;;;;5014081;28;20057;-61
2021/06/02 06:52:57;;;;;;;4.82;3.88;;;;;;;;;;5015223;28;20088;-62
2021/06/02 06:55:44;;;;;;;7.55;5.18;;;;;;;;;;5014363;28;20052;-62
2021/06/02 06:58:29;;;;;;;6.85;4.65;;;;;;;;;;5014556;28;20047;-62
2021/06/02 07:01:18;;;;;;;6.22;4.38;;;;;;;;;;5054692;23;20053;-65
2021/06/02 07:04:04;;;;;;;6.65;4.45;;;;;;;;;;5014896;28;20054;-65
2021/06/02 07:06:49;;;;;;;6.88;4.95;;;;;;;;;;5013889;28;20127;-65
2021/06/02 07:09:35;;;;;;;8.05;4.75;;;;;;;;;;5014567;28;20463;-64
2021/06/02 07:12:21;;;;;;;7.18;4.72;;;;;;;;;;5014736;28;20229;-64
2021/06/02 07:15:07;;;;;;;9.15;5.40;;;;;;;;;;5014826;28;20050;-64
2021/06/02 07:17:52;;;;;;;6.97;5.15;;;;;;;;;;5014557;28;20507;-64
2021/06/02 07:20:38;;;;;;;6.72;4.88;;;;;;;;;;5014560;28;20132;-64
2021/06/02 07:23:23;;;;;;;6.85;5.25;;;;;;;;;;5013646;28;20042;-64
2021/06/02 07:26:09;;;;;;;6.78;5.13;;;;;;;;;;5013588;28;20124;-64
2021/06/02 07:28:55;;;;;;;7.82;5.53;;;;;;;;;;5014506;28;20049;-64
2021/06/02 07:31:40;;;;;;;6.32;4.55;;;;;;;;;;5013095;28;20081;-64
2021/06/02 07:34:25;;;;;;;7.28;4.78;;;;;;;;;;5014404;28;20599;-65
2021/06/02 07:37:15;;;;;;;7.70;4.72;;;;;;;;;;5014319;28;20056;-65
2021/06/02 07:40:00;;;;;;;6.38;5.10;;;;;;;;;;5013839;28;20050;-64
2021/06/02 07:42:46;;;;;;;7.03;4.32;;;;;;;;;;5014229;28;20053;-64
2021/06/02 07:45:31;;;;;;;6.60;4.18;;;;;;;;;;5014241;28;20428;-64
2021/06/02 07:48:17;;;;;;;4.93;4.40;;;;;;;;;;5014240;28;20404;-64
2021/06/02 07:51:02;;;;;;;5.82;3.75;;;;;;;;;;5013737;28;20566;-64
2021/06/02 07:53:47;;;;;;;9.70;4.82;;;;;;;;;;5013221;28;20049;-64
2021/06/02 07:56:33;;;;;;;4.75;3.60;;;;;;;;;;5013768;28;20045;-64
2021/06/02 07:59:18;;;;;;;5.47;4.07;;;;;;;;;;5013723;28;20045;-64
2021/06/02 08:02:04;;;;;;;6.10;4.35;;;;;;;;;;5013745;28;20416;-64
2021/06/02 08:04:50;;;;;;;5.72;3.72;;;;;;;;;;5013951;28;20045;-64
2021/06/02 08:07:35;;;;;;;4.68;3.15;;;;;;;;;;5013841;28;20107;-64
2021/06/02 08:10:21;;;;;;;6.93;3.28;;;;;;;;;;5012378;28;20042;-64
2021/06/02 08:13:06;;;;;;;3.88;2.88;;;;;;;;;;5013312;28;20056;-64
2021/06/02 08:15:51;;;;;;;4.57;3.22;;;;;;;;;;5013817;28;20042;-64
2021/06/02 08:18:37;;;;;;;4.72;2.90;;;;;;;;;;5011620;28;20552;-64
2021/06/02 08:21:22;;;;;;;3.55;2.30;;;;;;;;;;5013128;28;20416;-64
2021/06/02 08:24:07;;;;;;;6.07;2.75;;;;;;;;;;5013676;28;20050;-64
2021/06/02 08:26:53;;;;;;;3.13;2.30;;;;;;;;;;5013492;28;20119;-64
2021/06/02 08:29:38;;;;;;;2.97;2.40;;;;;;;;;;5013186;28;20145;-64
2021/06/02 08:32:24;;;;;;;2.00;1.70;;;;;;;;;;5013337;28;20065;-64
2021/06/02 08:35:10;;;;;;;4.60;2.55;;;;;;;;;;5013216;28;20547;-64
2021/06/02 08:37:56;;;;;;;3.58;1.85;;;;;;;;;;5013205;28;20128;-64
2021/06/02 08:40:41;;;;;;;2.15;1.70;;;;;;;;;;5013008;28;20088;-64
2021/06/02 08:43:26;;;;;;;3.75;1.67;;;;;;;;;;5012834;28;20049;-64
2021/06/02 08:46:12;;;;;;;4.35;1.63;;;;;;;;;;5012935;28;20128;-65
2021/06/02 08:48:57;;;;;;;2.65;2.00;;;;;;;;;;5011832;28;20607;-65
2021/06/02 08:51:42;;;;;;;2.00;1.38;;;;;;;;;;5012673;28;20108;-65
2021/06/02 08:54:28;;;;;;;5.68;1.90;;;;;;;;;;5013052;28;20140;-65
2021/06/02 08:57:13;;;;;;;4.13;1.50;;;;;;;;;;5012933;28;20048;-65
2021/06/02 08:59:58;;;;;;;2.30;1.40;;;;;;;;;;5012505;28;20137;-66
2021/06/02 09:02:44;;;;;;;1.85;1.63;;;;;;;;;;5012493;28;20072;-65
2021/06/02 09:05:30;;;;;;;4.63;1.90;;;;;;;;;;5012619;28;20041;-65
2021/06/02 09:08:16;;;;;;;2.97;1.80;;;;;;;;;;5012575;28;20038;-65
2021/06/02 09:11:14;;;;;;;2.05;1.35;;;;;;;;;;5012154;28;20045;-65
2021/06/02 09:13:59;;;;;;;2.67;1.90;;;;;;;;;;5012490;28;20507;-65
2021/06/02 09:16:51;;;;;;;5.40;1.67;;;;;;;;;;5011382;28;20053;-65
2021/06/02 09:19:38;;;;;;;2.20;1.77;;;;;;;;;;5012120;28;20042;-65
2021/06/02 09:22:23;;;;;;;2.80;1.67;;;;;;;;;;5012495;28;20060;-65
2021/06/02 09:25:09;;;;;;;2.30;1.73;;;;;;;;;;5012404;28;20120;-65
2021/06/02 09:27:57;;;;;;;1.80;1.70;;;;;;;;;;5012355;28;20407;-64
2021/06/02 09:30:43;;;;;;;4.18;1.60;;;;;;;;;;5011315;28;20073;-64
2021/06/02 09:33:29;;;;;;;4.00;1.45;;;;;;;;;;5012228;28;20042;-64
2021/06/02 09:36:15;;;;;;;1.40;1.27;;;;;;;;;;5012235;28;20489;-64
2021/06/02 09:39:01;;;;;;;3.03;1.60;;;;;;;;;;5012242;28;20045;-64
2021/06/02 09:42:03;;;;;;;4.10;1.50;;;;;;;;;;5011965;28;20042;-64
2021/06/02 09:45:07;;;;;;;3.93;1.83;;;;;;;;;;5011037;28;20054;-64
2021/06/02 09:47:54;;;;;;;2.10;1.50;;;;;;;;;;5012074;28;20284;-64
2021/06/02 09:50:40;;;;;;;5.07;1.83;;;;;;;;;;5011850;28;20054;-64
2021/06/02 09:53:25;;;;;;;3.53;1.90;;;;;;;;;;5012099;28;20507;-64
2021/06/02 09:56:10;;;;;;;3.22;1.50;;;;;;;;;;5012101;28;20056;-64
2021/06/02 09:58:56;;;;;;;5.32;1.67;;;;;;;;;;5011998;28;20096;-64
2021/06/02 10:01:53;;;;;;;2.72;1.85;;;;;;;;;;5011563;28;20042;-65
2021/06/02 10:04:39;;;;;;;2.47;1.67;;;;;;;;;;5012027;28;20061;-65
2021/06/02 10:07:25;;;;;;;3.90;1.75;;;;;;;;;;5011899;28;20066;-65
2021/06/02 10:10:12;;;;;;;1.75;1.60;;;;;;;;;;5011774;28;20381;-65
2021/06/02 10:12:58;;;;;;;2.65;2.00;;;;;;;;;;5011856;28;20050;-65
2021/06/02 10:15:46;;;;;;;3.55;1.70;;;;;;;;;;5011048;28;20057;-63
2021/06/02 10:18:32;;;;;;;4.68;2.15;;;;;;;;;;5011681;28;20504;-63
2021/06/02 10:21:17;;;;;;;2.40;1.88;;;;;;;;;;5011482;28;20511;-63
2021/06/02 10:24:03;;;;;;;4.28;2.72;;;;;;;;;;5011718;28;20056;-63
2021/06/02 10:26:48;;;;;;;2.40;1.80;;;;;;;;;;5011922;28;20057;-63
2021/06/02 10:29:33;;;;;;;4.72;2.22;;;;;;;;;;5010421;28;20116;-63
2021/06/02 10:32:19;;;;;;;5.38;2.47;;;;;;;;;;5010647;28;20513;-63
2021/06/02 10:35:05;;;;;;;3.85;2.35;;;;;;;;;;5011558;28;20049;-64
2021/06/02 10:37:50;;;;;;;8.63;2.95;;;;;;;;;;5011674;28;20381;-64
2021/06/02 10:40:35;;;;;;;4.05;2.47;;;;;;;;;;5010977;28;20057;-63
2021/06/02 10:43:24;;;;;;;3.80;2.33;;;;;;;;;;5015123;28;20349;-63
2021/06/02 10:46:12;;;;;;;4.13;2.45;;;;;;;;;;5015237;28;20117;-63
2021/06/02 10:48:57;;;;;;;5.47;2.38;;;;;;;;;;5014130;28;20105;-63
2021/06/02 10:51:44;;;;;;;3.13;2.80;;;;;;;;;;5015020;28;20424;-63
2021/06/02 10:54:38;;;;;;;4.72;2.00;;;;;;;;;;5013698;28;20531;-63
2021/06/02 10:57:23;;;;;;;7.35;2.72;;;;;;;;;;5015084;28;20049;-63
2021/06/02 11:00:12;;;;;;;5.30;2.88;;;;;;;;;;5014685;28;20054;-63
2021/06/02 11:03:17;;;;;;;11.77;2.92;;;;;;;;;;5014500;28;20042;-64
2021/06/02 11:06:15;;;;;;;5.40;2.70;;;;;;;;;;5013584;28;20049;-63
2021/06/02 11:09:05;;;;;;;5.13;2.50;;;;;;;;;;5014702;28;20042;-63
2021/06/02 11:11:50;;;;;;;5.93;2.90;;;;;;;;;;5014389;28;20053;-63
2021/06/02 11:14:35;;;;;;;3.83;2.70;;;;;;;;;;5013423;28;20675;-62
2021/06/02 11:17:21;;;;;;;5.18;2.55;;;;;;;;;;5014466;28;20041;-63
2021/06/02 11:20:09;;;;;;;3.58;2.58;;;;;;;;;;5014355;28;20044;-63
2021/06/02 11:23:07;;;;;;;4.28;2.63;;;;;;;;;;5013181;28;20635;-63
2021/06/02 11:25:52;;;;;;;4.20;2.88;;;;;;;;;;5014360;28;20044;-62
2021/06/02 11:28:41;;;;;;;3.33;2.80;;;;;;;;;;5014412;28;20084;-62
2021/06/02 11:31:30;;;;;;;3.83;2.92;;;;;;;;;;5014337;28;20050;-63
2021/06/02 11:34:28;;;;;;;4.03;2.40;;;;;;;;;;5014279;28;20389;-63
2021/06/02 11:37:15;;;;;;;4.95;2.72;;;;;;;;;;5014148;28;20052;-63
2021/06/02 11:40:02;;;;;;;3.78;2.38;;;;;;;;;;5014220;28;20404;-63
2021/06/02 11:42:48;;;;;;;5.95;3.20;;;;;;;;;;5014082;28;20081;-63
2021/06/02 11:45:34;;;;;;;5.57;2.80;;;;;;;;;;5014023;28;20116;-63
2021/06/02 11:48:22;;;;;;;4.32;2.85;;;;;;;;;;5014158;28;20527;-63
2021/06/02 11:51:08;;;;;;;4.28;2.60;;;;;;;;;;5013751;28;20052;-63
2021/06/02 11:53:53;;;;;;;3.58;2.22;;;;;;;;;;5012783;28;20068;-63
2021/06/02 11:56:38;;;;;;;4.25;2.95;;;;;;;;;;5012957;28;20054;-63
2021/06/02 11:59:23;;;;;;;4.30;2.42;;;;;;;;;;5013710;28;20046;-62
2021/06/02 12:02:15;;;;;;;3.83;2.58;;;;;;;;;;5013515;28;20127;-62
2021/06/02 12:05:00;;;;;;;;;;;;;;;;;;5014329;28;20052;-63
2021/06/02 12:07:46;;;;;;;6.93;3.45;;;;;;;;;;5013554;28;19921;-63
2021/06/02 12:10:47;;;;;;;6.03;3.40;;;;;;;;;;5013390;28;20524;-63
2021/06/02 12:13:37;;;;;;;3.88;3.00;;;;;;;;;;5013659;28;20405;-64
2021/06/02 12:16:26;;;;;;;5.50;3.30;;;;;;;;;;5013508;28;20057;-65
2021/06/02 12:19:11;;;;;;;3.90;2.90;;;;;;;;;;5013336;28;20049;-64
2021/06/02 12:21:56;;;;;;;6.07;3.72;;;;;;;;;;5012338;28;20049;-64
2021/06/02 12:24:41;;;;;;;4.38;3.47;;;;;;;;;;5012264;28;20042;-64
2021/06/02 12:27:26;;;;;;;6.05;3.55;;;;;;;;;;5012260;28;20050;-63
2021/06/02 12:30:13;;;;;;;5.35;3.35;;;;;;;;;;5013355;28;20052;-64
2021/06/02 12:33:10;;;;;;;6.88;3.85;;;;;;;;;;5013125;28;20048;-64
2021/06/02 12:36:06;;;;;;;6.63;3.53;;;;;;;;;;5013092;28;20092;-63
2021/06/02 12:38:51;;;;;;;5.85;3.75;;;;;;;;;;5013317;28;20772;-63
2021/06/02 12:41:37;;;;;;;6.13;3.92;;;;;;;;;;4997012;28;20061;-63
2021/06/02 12:44:22;;;;;;;4.63;3.30;;;;;;;;;;4992586;28;20042;-64
2021/06/02 12:47:09;;;;;;;3.58;3.25;;;;;;;;;;4992424;28;20070;-64
2021/06/02 12:49:57;;;;;;;5.45;3.25;;;;;;;;;;4995582;28;20042;-64
2021/06/02 12:52:43;;;;;;;5.00;3.83;;;;;;;;;;5011238;28;20497;-65
2021/06/02 12:55:28;;;;;;;4.88;3.97;;;;;;;;;;4995951;28;20051;-64
2021/06/02 12:58:14;;;;;;;3.78;3.25;;;;;;;;;;4992086;28;20041;-64
2021/06/02 13:01:05;;;;;;;5.07;3.25;;;;;;;;;;5004010;28;20057;-65
2021/06/02 13:03:53;;;;;;;9.93;4.53;;;;;;;;;;4994893;28;20104;-64
2021/06/02 13:06:38;;;;;;;6.70;3.90;;;;;;;;;;4999421;28;20042;-64
2021/06/02 13:09:24;;;;;;;3.65;3.20;;;;;;;;;;4991898;28;20409;-65
2021/06/02 13:12:18;;;;;;;3.33;3.03;;;;;;;;;;4991530;28;20042;-64
2021/06/02 13:15:03;;;;;;;4.78;3.65;;;;;;;;;;4998485;28;20073;-64
2021/06/02 13:17:48;;;;;;;3.92;3.53;;;;;;;;;;5009148;28;20784;-65
2021/06/02 13:20:36;;;;;;;3.65;3.17;;;;;;;;;;5002988;28;20038;-65
2021/06/02 13:23:22;;;;;;;5.65;3.70;;;;;;;;;;5007529;28;20038;-64
2021/06/02 13:26:12;;;;;;;5.38;3.65;;;;;;;;;;4997425;28;20049;-64
2021/06/02 13:28:58;;;;;;;3.80;3.50;;;;;;;;;;5011536;28;20041;-64
2021/06/02 13:31:47;;;;;;;6.28;3.25;;;;;;;;;;4995300;28;20132;-64
2021/06/02 13:34:39;;;;;;;5.00;3.00;;;;;;;;;;5012059;28;20064;-64
2021/06/02 13:37:27;;;;;;;;;;;;;;;;;;4996267;28;20061;-64
2021/06/02 13:40:13;;;;;;;7.45;4.18;;;;;;;;;;4997326;28;19928;-64
2021/06/02 13:43:20;;;;;;;6.43;3.60;;;;;;;;;;5011312;28;20056;-64
2021/06/02 13:46:11;;;;;;;4.28;3.50;;;;;;;;;;4997206;28;20038;-64
2021/06/02 13:48:56;;;;;;;;;;;;;;;;;;4997128;28;20042;-65
2021/06/02 13:51:50;;;;;;;4.78;3.58;;;;;;;;;;4993252;28;19922;-64
2021/06/02 13:54:36;;;;;;;5.15;3.40;;;;;;;;;;5002376;28;20046;-63
2021/06/02 13:57:25;;;;;;;3.33;2.88;;;;;;;;;;4991600;28;20046;-63
2021/06/02 14:00:11;;;;;;;4.70;2.95;;;;;;;;;;4991899;28;20035;-63
2021/06/02 14:03:00;;;;;;;3.40;2.97;;;;;;;;;;4991209;28;20054;-63
2021/06/02 14:05:45;;;;;;;6.43;2.53;;;;;;;;;;4991653;28;20415;-64
2021/06/02 14:08:31;;;;;;;4.15;2.53;;;;;;;;;;4991800;28;20165;-64
2021/06/02 14:11:29;;;;;;;5.05;2.80;;;;;;;;;;5006402;28;20057;-63
2021/06/02 14:14:14;;;;;;;4.10;3.25;;;;;;;;;;5005788;28;20382;-64
2021/06/02 14:16:59;;;;;;;6.13;2.65;;;;;;;;;;4994385;28;20068;-63
2021/06/02 14:19:45;;;;;;;4.55;2.92;;;;;;;;;;5011365;28;20512;-64
2021/06/02 14:22:30;;;;;;;12.43;4.15;;;;;;;;;;5003359;28;20044;-64
2021/06/02 14:25:18;;;;;;;5.10;2.80;;;;;;;;;;5015195;28;20052;-64
2021/06/02 14:28:03;;;;;;;5.18;2.70;;;;;;;;;;4999956;28;20119;-63
2021/06/02 14:30:49;;;;;;;2.72;2.53;;;;;;;;;;5015186;28;20065;-64
2021/06/02 14:33:34;;;;;;;5.80;2.47;;;;;;;;;;4999041;28;20054;-64
2021/06/02 14:36:19;;;;;;;3.00;2.55;;;;;;;;;;5007482;28;20046;-64
2021/06/02 14:39:08;;;;;;;5.18;2.50;;;;;;;;;;4995080;28;20556;-64
2021/06/02 14:41:55;;;;;;;3.05;2.50;;;;;;;;;;5010837;28;20520;-64
2021/06/02 14:44:40;;;;;;;4.88;2.70;;;;;;;;;;4994988;28;20057;-63
2021/06/02 14:47:25;;;;;;;5.05;2.60;;;;;;;;;;5010583;28;20133;-64
2021/06/02 14:50:11;;;;;;;3.67;2.95;;;;;;;;;;5000634;28;20070;-64
2021/06/02 14:52:57;;;;;;;4.63;2.70;;;;;;;;;;5014905;28;20694;-63
2021/06/02 14:55:42;;;;;;;4.40;2.70;;;;;;;;;;4998762;28;20042;-64
2021/06/02 14:58:27;;;;;;;2.75;2.45;;;;;;;;;;5006454;28;20043;-64
2021/06/02 15:01:13;;;;;;;3.47;2.50;;;;;;;;;;5008185;28;20115;-63
2021/06/02 15:03:59;;;;;;;3.45;2.45;;;;;;;;;;4998437;28;20157;-64
2021/06/02 15:06:44;;;;;;;6.82;2.97;;;;;;;;;;5014282;28;20046;-63
2021/06/02 15:09:29;;;;;;;3.65;2.60;;;;;;;;;;4997673;28;20046;-63
2021/06/02 15:12:15;;;;;;;7.70;2.88;;;;;;;;;;5008488;28;20538;-63
2021/06/02 15:15:03;;;;;;;6.07;2.80;;;;;;;;;;5007431;28;20077;-64
2021/06/02 15:17:49;;;;;;;4.97;3.25;;;;;;;;;;4997619;28;20051;-63
2021/06/02 15:20:34;;;;;;;6.65;3.35;;;;;;;;;;5005012;28;20633;-63
2021/06/02 15:23:20;;;;;;;3.30;2.83;;;;;;;;;;5008956;28;20451;-64
2021/06/02 15:26:05;;;;;;;5.35;2.95;;;;;;;;;;4999090;28;20046;-63
2021/06/02 15:28:50;;;;;;;5.78;2.80;;;;;;;;;;5013761;28;20046;-64
2021/06/02 15:31:36;;;;;;;5.50;2.45;;;;;;;;;;4996932;28;20050;-64
2021/06/02 15:34:21;;;;;;;5.68;2.92;;;;;;;;;;5006114;28;20047;-63
2021/06/02 15:37:07;;;;;;;3.38;3.00;;;;;;;;;;5007072;28;20077;-63
2021/06/02 15:39:52;;;;;;;6.95;2.80;;;;;;;;;;4996936;28;20046;-63
2021/06/02 15:42:37;;;;;;;3.20;2.72;;;;;;;;;;5004045;28;20077;-63
2021/06/02 15:45:23;;;;;;;3.67;2.63;;;;;;;;;;5009166;28;20077;-63
2021/06/02 15:48:08;;;;;;;4.25;2.42;;;;;;;;;;4999271;28;20164;-63
2021/06/02 15:50:54;;;;;;;3.80;3.10;;;;;;;;;;5013354;28;20123;-63
2021/06/02 15:53:39;;;;;;;5.70;2.72;;;;;;;;;;4997508;28;20085;-63
2021/06/02 15:56:24;;;;;;;4.20;2.20;;;;;;;;;;5006461;28;20046;-63
2021/06/02 15:59:10;;;;;;;3.92;2.65;;;;;;;;;;5019862;28;20056;-63
2021/06/02 16:01:55;;;;;;;4.00;2.90;;;;;;;;;;4996794;28;20416;-63
2021/06/02 16:04:41;;;;;;;6.00;2.72;;;;;;;;;;5012150;28;20381;-63
2021/06/02 16:07:26;;;;;;;5.65;2.63;;;;;;;;;;4997544;28;20105;-63
2021/06/02 16:10:12;;;;;;;4.22;2.17;;;;;;;;;;4993486;28;20050;-63
2021/06/02 16:12:57;;;;;;;6.18;2.65;;;;;;;;;;4993840;28;20050;-63
2021/06/02 16:15:43;;;;;;;5.43;3.08;;;;;;;;;;4993864;28;20043;-63
2021/06/02 16:18:28;;;;;;;4.15;2.78;;;;;;;;;;4989897;28;20116;-63
2021/06/02 16:21:13;;;;;;;6.63;2.70;;;;;;;;;;5007477;28;20049;-63
2021/06/02 16:23:59;;;;;;;3.90;2.58;;;;;;;;;;4997472;28;20065;-63
2021/06/02 16:26:45;;;;;;;5.28;3.03;;;;;;;;;;5010394;28;20492;-64
2021/06/02 16:29:30;;;;;;;3.05;2.75;;;;;;;;;;4998376;28;20054;-64
2021/06/02 16:32:17;;;;;;;4.22;2.70;;;;;;;;;;5003765;28;20389;-64
2021/06/02 16:35:03;;;;;;;2.95;2.55;;;;;;;;;;4997301;28;20567;-64
2021/06/02 16:37:49;;;;;;;3.05;2.65;;;;;;;;;;4998281;28;20038;-64
2021/06/02 16:40:35;;;;;;;3.50;2.50;;;;;;;;;;5001108;28;20061;-64
2021/06/02 16:43:20;;;;;;;4.28;2.63;;;;;;;;;;4997039;28;20405;-64
2021/06/02 16:46:05;;;;;;;3.88;3.13;;;;;;;;;;5003083;28;20046;-65
2021/06/02 16:48:50;;;;;;;3.17;2.72;;;;;;;;;;4996311;28;20058;-64
2021/06/02 16:51:36;;;;;;;4.45;2.85;;;;;;;;;;5001232;28;20499;-65
2021/06/02 16:54:21;;;;;;;5.88;3.30;;;;;;;;;;4992800;28;20401;-65